Time;durP1;ratioP1;P1;durP2;ratioP2;P2;SDS_P1;SDS_P2;PMS_P1;PMS_P2;Temp;Humidity;BMP_temperature;BMP_pressure;BME280_temperature;BME280_humidity;BME280_pressure;Samples;Min_cycle;Max_cycle;Signal;HPM_P1;HPM_P2
2022/04/01 00:00:43;;;;;;;31.08;22.92;;;2.00;99.90;;;;;;5000949;28;20489;-51
2022/04/01 00:03:09;;;;;;;32.63;23.38;;;2.00;99.90;;;;;;4997845;28;20466;-51
2022/04/01 00:05:35;;;;;;;32.43;23.13;;;2.00;99.90;;;;;;4999414;28;20080;-50
2022/04/01 00:08:01;;;;;;;30.05;22.33;;;1.90;99.90;;;;;;4998176;28;20092;-51
2022/04/01 00:10:27;;;;;;;37.63;25.17;;;1.90;99.90;;;;;;4999058;28;20482;-51
2022/04/01 00:12:53;;;;;;;36.30;23.45;;;2.00;99.90;;;;;;5000536;28;20029;-50
2022/04/01 00:15:19;;;;;;;36.63;23.73;;;2.00;99.90;;;;;;5001002;28;20061;-53
2022/04/01 00:17:44;;;;;;;33.50;23.27;;;1.90;99.90;;;;;;4997884;28;20381;-52
2022/04/01 00:20:13;;;;;;;36.88;24.38;;;1.90;99.90;;;;;;4999164;28;20036;-52
2022/04/01 00:22:40;;;;;;;36.35;23.90;;;2.00;99.90;;;;;;5000702;28;20419;-52
2022/04/01 00:25:07;;;;;;;33.42;22.73;;;2.00;99.90;;;;;;4998913;28;20089;-50
2022/04/01 00:27:33;;;;;;;34.80;23.07;;;1.90;99.90;;;;;;5000532;28;20104;-54
2022/04/01 00:29:58;;;;;;;35.28;24.30;;;1.90;99.90;;;;;;5000396;28;20352;-52
2022/04/01 00:32:25;;;;;;;35.35;23.95;;;1.80;99.90;;;;;;5010226;28;20549;-51
2022/04/01 00:34:51;;;;;;;36.30;24.15;;;1.90;99.90;;;;;;5009881;28;20046;-52
2022/04/01 00:37:17;;;;;;;35.40;22.70;;;1.90;99.90;;;;;;5010231;28;20070;-52
2022/04/01 00:39:44;;;;;;;36.70;23.98;;;1.90;99.90;;;;;;4992052;28;20042;-52
2022/04/01 00:42:11;;;;;;;33.17;22.83;;;1.90;99.90;;;;;;5010345;28;20034;-51
2022/04/01 00:44:39;;;;;;;35.47;25.20;;;1.90;99.90;;;;;;5009986;28;20046;-50
2022/04/01 00:47:10;;;;;;;37.40;24.88;;;1.90;99.90;;;;;;5009712;28;20096;-50
2022/04/01 00:49:36;;;;;;;36.20;24.85;;;1.90;99.90;;;;;;4992190;28;20041;-52
2022/04/01 00:52:06;;;;;;;36.63;25.48;;;1.90;99.90;;;;;;5009875;28;20022;-52
2022/04/01 00:54:32;;;;;;;38.70;25.70;;;1.90;99.90;;;;;;5008999;28;20069;-51
2022/04/01 00:56:58;;;;;;;40.03;26.77;;;1.90;99.90;;;;;;5009708;28;20045;-50
2022/04/01 00:59:25;;;;;;;38.00;24.67;;;1.90;99.90;;;;;;4991722;28;20473;-51
2022/04/01 01:01:52;;;;;;;38.28;25.80;;;1.90;99.90;;;;;;5010127;28;20044;-52
2022/04/01 01:04:19;;;;;;;38.65;26.10;;;1.90;99.90;;;;;;5009580;28;20033;-52
2022/04/01 01:06:50;;;;;;;36.28;25.17;;;1.90;99.90;;;;;;5005056;28;20410;-52
2022/04/01 01:09:17;;;;;;;42.58;26.30;;;1.90;99.90;;;;;;4989901;28;20038;-50
2022/04/01 01:11:45;;;;;;;37.13;25.98;;;1.90;99.90;;;;;;4989859;28;20474;-51
2022/04/01 01:14:13;;;;;;;36.28;24.83;;;1.80;99.90;;;;;;4989692;28;20134;-53
2022/04/01 01:16:46;;;;;;;40.30;27.50;;;1.80;99.90;;;;;;4989948;28;20038;-53
2022/04/01 01:19:15;;;;;;;38.25;27.02;;;1.80;99.90;;;;;;4989561;28;20544;-52
2022/04/01 01:21:42;;;;;;;38.15;25.67;;;1.80;99.90;;;;;;4989568;28;20038;-51
2022/04/01 01:24:15;;;;;;;39.28;26.13;;;1.80;99.90;;;;;;5002202;28;20451;-52
2022/04/01 01:26:52;;;;;;;38.08;26.05;;;1.80;99.90;;;;;;5009121;28;20034;-52
2022/04/01 01:29:25;;;;;;;37.47;26.23;;;1.80;99.90;;;;;;5000998;28;20397;-52
2022/04/01 01:31:52;;;;;;;39.90;26.42;;;1.80;99.90;;;;;;5001604;28;20473;-51
2022/04/01 01:34:18;;;;;;;42.72;26.95;;;1.80;99.90;;;;;;5008972;28;20041;-52
2022/04/01 01:36:44;;;;;;;37.42;26.52;;;1.80;99.90;;;;;;5009095;28;20033;-52
2022/04/01 01:39:10;;;;;;;37.53;26.48;;;1.70;99.90;;;;;;5008703;28;20049;-51
2022/04/01 01:41:36;;;;;;;37.40;25.38;;;1.80;99.90;;;;;;5000259;28;20371;-51
2022/04/01 01:44:01;;;;;;;38.70;26.25;;;1.80;99.90;;;;;;4989205;28;20035;-51
2022/04/01 01:46:27;;;;;;;41.83;28.10;;;1.80;99.90;;;;;;4972136;28;20031;-52
2022/04/01 01:48:53;;;;;;;40.40;26.95;;;1.80;99.90;;;;;;4989079;28;20022;-53
2022/04/01 01:56:47;;;;;;;38.75;25.77;;;1.90;99.90;;;;;;4989369;28;20458;-53
2022/04/01 01:59:13;;;;;;;35.70;25.33;;;1.80;99.90;;;;;;4989096;28;20023;-51
2022/04/01 02:01:39;;;;;;;34.72;24.27;;;1.80;99.90;;;;;;4989311;28;20040;-52
2022/04/01 02:04:06;;;;;;;35.37;25.97;;;1.90;99.90;;;;;;4989058;28;20031;-52
2022/04/01 02:06:31;;;;;;;33.07;24.07;;;1.80;99.90;;;;;;4990340;28;20281;-53
2022/04/01 02:08:58;;;;;;;34.25;23.30;;;1.80;99.90;;;;;;4993012;28;20031;-51
2022/04/01 02:11:24;;;;;;;35.08;23.90;;;1.80;99.90;;;;;;4993391;28;20018;-49
2022/04/01 02:13:51;;;;;;;36.70;25.10;;;1.80;99.90;;;;;;4993271;28;20034;-51
2022/04/01 02:16:16;;;;;;;31.85;22.67;;;1.80;99.90;;;;;;4992880;28;20041;-57
2022/04/01 02:18:43;;;;;;;34.90;23.63;;;1.80;99.90;;;;;;5005798;28;20026;-50
2022/04/01 02:21:12;;;;;;;36.55;24.13;;;1.70;99.90;;;;;;5011374;28;20022;-50
2022/04/01 02:23:39;;;;;;;36.60;24.85;;;1.80;99.90;;;;;;5002387;28;20062;-51
2022/04/01 02:26:07;;;;;;;33.65;22.88;;;1.80;99.90;;;;;;4992441;28;20094;-51
2022/04/01 02:28:34;;;;;;;31.23;21.52;;;1.80;99.90;;;;;;4992873;28;20057;-51
2022/04/01 02:31:00;;;;;;;29.25;20.67;;;1.80;99.90;;;;;;4996301;28;20073;-52
2022/04/01 02:33:27;;;;;;;30.15;20.55;;;1.80;99.90;;;;;;5012074;28;20519;-52
2022/04/01 02:35:54;;;;;;;;;;;1.80;99.90;;;;;;5006770;28;20038;-52
2022/04/01 02:38:19;;;;;;;26.73;20.05;;;1.70;99.90;;;;;;4992459;28;19924;-50
2022/04/01 02:40:45;;;;;;;26.20;18.55;;;1.80;99.90;;;;;;4992742;28;20038;-51
2022/04/01 02:43:11;;;;;;;27.90;19.33;;;1.80;99.90;;;;;;4992386;28;20038;-50
2022/04/01 02:45:37;;;;;;;24.98;17.10;;;1.80;99.90;;;;;;4992566;28;20390;-49
2022/04/01 02:48:05;;;;;;;26.77;17.40;;;1.80;99.90;;;;;;4975408;28;20029;-51
2022/04/01 02:50:31;;;;;;;22.17;16.20;;;1.70;99.90;;;;;;4992183;28;20113;-50
2022/04/01 02:52:57;;;;;;;24.80;16.83;;;1.80;99.90;;;;;;4992257;28;20162;-50
2022/04/01 02:55:23;;;;;;;24.17;16.70;;;1.80;99.90;;;;;;4992097;28;20042;-50
2022/04/01 02:57:49;;;;;;;19.35;14.25;;;1.80;99.90;;;;;;4992314;28;20026;-49
2022/04/01 03:00:21;;;;;;;20.25;15.65;;;1.80;99.90;;;;;;4991956;28;20031;-50
2022/04/01 03:02:50;;;;;;;22.63;16.42;;;1.80;99.90;;;;;;4991978;28;20077;-49
2022/04/01 03:05:17;;;;;;;25.05;17.40;;;1.80;99.90;;;;;;4991736;28;20165;-51
2022/04/01 03:07:44;;;;;;;27.70;18.52;;;1.80;99.90;;;;;;4992002;28;20061;-50
2022/04/01 03:10:10;;;;;;;;;;;1.80;99.90;;;;;;4992106;28;20026;-52
2022/04/01 03:12:36;;;;;;;26.38;16.10;;;1.80;99.90;;;;;;4986547;28;19914;-53
2022/04/01 03:15:03;;;;;;;23.75;16.45;;;1.80;99.90;;;;;;4974208;28;20038;-50
2022/04/01 03:17:29;;;;;;;;;;;1.80;99.90;;;;;;4991551;28;20145;-52
2022/04/01 03:19:55;;;;;;;23.45;15.88;;;1.80;99.90;;;;;;4991480;28;20460;-52
2022/04/01 03:22:21;;;;;;;20.35;15.50;;;1.70;99.90;;;;;;4991591;28;20027;-52
2022/04/01 03:24:47;;;;;;;27.02;17.63;;;1.70;99.90;;;;;;4991063;28;20030;-52
2022/04/01 03:27:13;;;;;;;25.45;17.92;;;1.80;99.90;;;;;;4991588;28;20113;-52
2022/04/01 03:29:39;;;;;;;24.97;17.77;;;1.80;99.90;;;;;;4991591;28;20026;-52
2022/04/01 03:32:05;;;;;;;27.00;18.15;;;1.70;99.90;;;;;;5002122;28;20356;-51
2022/04/01 03:34:32;;;;;;;25.63;18.63;;;1.80;99.90;;;;;;5010774;28;20034;-52
2022/04/01 03:36:58;;;;;;;27.38;19.50;;;1.80;99.90;;;;;;5011318;28;20034;-52
2022/04/01 03:39:24;;;;;;;28.20;19.77;;;1.80;99.90;;;;;;4993190;28;20049;-52
2022/04/01 03:41:51;;;;;;;26.48;18.92;;;1.70;99.90;;;;;;5011029;28;20038;-52
2022/04/01 03:44:17;;;;;;;32.53;19.77;;;1.70;99.90;;;;;;5010796;28;20565;-51
2022/04/01 03:46:46;;;;;;;30.15;19.60;;;1.70;99.90;;;;;;4993232;28;20273;-52
2022/04/01 03:49:16;;;;;;;29.38;19.08;;;1.70;99.90;;;;;;5010504;28;20425;-53
2022/04/01 03:51:44;;;;;;;24.02;16.45;;;1.80;99.90;;;;;;5010581;28;20117;-52
2022/04/01 03:54:11;;;;;;;27.17;18.17;;;1.70;99.90;;;;;;5010689;28;20033;-52
2022/04/01 03:56:38;;;;;;;29.40;18.48;;;1.70;99.90;;;;;;4993141;28;20026;-51
2022/04/01 03:59:05;;;;;;;29.08;18.85;;;1.70;99.90;;;;;;5010485;28;20232;-51
2022/04/01 04:01:32;;;;;;;28.13;18.52;;;1.60;99.90;;;;;;4992879;28;20030;-51
2022/04/01 04:03:58;;;;;;;24.70;17.75;;;1.60;99.90;;;;;;5010360;28;20084;-53
2022/04/01 04:06:24;;;;;;;26.73;18.27;;;1.60;99.90;;;;;;5010292;28;20038;-52
2022/04/01 04:08:55;;;;;;;25.97;18.53;;;1.70;99.90;;;;;;5010615;28;20069;-50
2022/04/01 04:11:26;;;;;;;25.88;19.45;;;1.60;99.90;;;;;;5010598;28;20022;-53
2022/04/01 04:13:53;;;;;;;25.58;18.02;;;1.60;99.90;;;;;;4992477;28;20030;-50
2022/04/01 04:16:31;;;;;;;26.98;19.42;;;1.60;99.90;;;;;;4990626;28;20074;-52
2022/04/01 04:19:04;;;;;;;;;;;1.60;99.90;;;;;;4998844;28;20049;-51
2022/04/01 04:21:36;;;;;;;28.13;18.10;;;1.60;99.90;;;;;;5009188;28;19912;-53
2022/04/01 04:24:02;;;;;;;23.52;17.95;;;1.60;99.90;;;;;;5008717;28;20497;-52
2022/04/01 04:26:38;;;;;;;26.75;19.92;;;1.60;99.90;;;;;;4990410;28;20033;-51
2022/04/01 04:29:15;;;;;;;27.60;19.23;;;1.60;99.90;;;;;;4990435;28;20121;-50
2022/04/01 04:32:03;;;;;;;30.13;20.10;;;1.60;99.90;;;;;;4996365;28;20026;-52
2022/04/01 04:34:44;;;;;;;32.67;21.95;;;1.60;99.90;;;;;;5009755;28;20362;-52
2022/04/01 04:37:14;;;;;;;30.35;20.70;;;1.60;99.90;;;;;;5001098;28;20026;-53
2022/04/01 04:39:42;;;;;;;28.60;20.58;;;1.60;99.90;;;;;;4990275;28;20053;-52
2022/04/01 04:42:09;;;;;;;28.25;19.02;;;1.60;99.90;;;;;;4990743;28;20626;-51
2022/04/01 04:44:36;;;;;;;28.63;19.65;;;1.60;99.90;;;;;;4990081;28;20070;-51
2022/04/01 04:47:05;;;;;;;28.15;20.15;;;1.60;99.90;;;;;;4990108;28;20488;-52
2022/04/01 04:49:31;;;;;;;29.73;20.00;;;1.60;99.90;;;;;;4989786;28;20489;-51
2022/04/01 04:51:58;;;;;;;26.48;18.05;;;1.60;99.90;;;;;;4990000;28;20077;-52
2022/04/01 04:54:25;;;;;;;25.00;18.08;;;1.60;99.90;;;;;;4986559;28;20049;-52
2022/04/01 04:56:53;;;;;;;25.77;17.00;;;1.60;99.90;;;;;;4979526;28;20493;-52
2022/04/01 04:59:20;;;;;;;28.40;18.15;;;1.60;99.90;;;;;;4999219;28;20030;-52
2022/04/01 05:01:55;;;;;;;27.42;18.67;;;1.60;99.90;;;;;;4994344;28;20026;-52
2022/04/01 05:04:43;;;;;;;23.60;16.70;;;1.50;99.90;;;;;;4989198;28;20041;-52
2022/04/01 05:07:27;;;;;;;;;;;1.50;99.90;;;;;;4992051;28;20173;-50
2022/04/01 05:09:57;;;;;;;27.42;18.38;;;1.60;99.90;;;;;;4998518;28;19989;-51
2022/04/01 05:13:02;;;;;;;30.58;20.10;;;1.50;99.90;;;;;;4997364;28;20018;-51
2022/04/01 05:15:34;;;;;;;30.70;19.63;;;1.60;99.90;;;;;;4995526;28;20046;-52
2022/04/01 05:18:06;;;;;;;32.50;21.20;;;1.50;99.90;;;;;;4979928;28;20070;-52
2022/04/01 05:20:36;;;;;;;27.65;19.02;;;1.60;99.90;;;;;;4998341;28;20057;-53
2022/04/01 05:23:07;;;;;;;34.05;21.25;;;1.60;99.90;;;;;;4999607;28;20033;-51
2022/04/01 05:25:43;;;;;;;29.50;20.95;;;1.60;99.90;;;;;;4980662;28;20115;-52
2022/04/01 05:28:24;;;;;;;26.98;20.02;;;1.60;99.90;;;;;;4998351;28;20026;-53
2022/04/01 05:31:04;;;;;;;30.85;21.65;;;1.60;99.90;;;;;;4998094;28;20089;-51
2022/04/01 05:33:41;;;;;;;31.88;23.00;;;1.60;99.90;;;;;;4997837;28;20026;-53
2022/04/01 05:36:10;;;;;;;36.90;23.48;;;1.60;99.90;;;;;;4996904;28;20461;-52
2022/04/01 05:38:36;;;;;;;33.33;22.92;;;1.60;99.90;;;;;;4997110;28;20053;-53
2022/04/01 05:41:02;;;;;;;31.83;22.27;;;1.60;99.90;;;;;;4998111;28;20037;-52
2022/04/01 05:43:30;;;;;;;34.25;23.08;;;1.60;99.90;;;;;;4997364;28;20030;-52
2022/04/01 05:45:56;;;;;;;33.47;22.25;;;1.60;99.90;;;;;;4989766;28;20030;-51
2022/04/01 05:48:22;;;;;;;37.42;23.98;;;1.60;99.90;;;;;;4989359;28;20556;-53
2022/04/01 05:50:51;;;;;;;33.03;21.92;;;1.60;99.90;;;;;;4989135;28;20105;-51
2022/04/01 05:53:20;;;;;;;36.95;22.95;;;1.70;99.90;;;;;;4989223;28;20465;-53
2022/04/01 05:55:46;;;;;;;29.13;20.58;;;1.70;99.90;;;;;;4989013;28;20030;-51
2022/04/01 05:58:12;;;;;;;29.90;21.23;;;1.70;99.90;;;;;;4989247;28;20451;-52
2022/04/01 06:01:25;;;;;;;37.08;22.02;;;1.70;99.90;;;;;;4989425;28;20049;-52
2022/04/01 06:04:32;;;;;;;33.15;20.98;;;1.70;99.90;;;;;;4989156;28;20081;-52
2022/04/01 06:07:14;;;;;;;31.88;19.67;;;1.80;99.90;;;;;;4960162;28;20121;-51
2022/04/01 06:09:47;;;;;;;27.02;19.70;;;1.80;99.90;;;;;;4989057;28;20378;-53
2022/04/01 06:12:33;;;;;;;29.00;20.17;;;1.70;99.90;;;;;;4989154;28;20097;-52
2022/04/01 06:15:02;;;;;;;28.00;19.15;;;1.70;99.90;;;;;;4998569;28;20041;-52
2022/04/01 06:17:40;;;;;;;26.13;18.73;;;1.70;99.90;;;;;;5007632;28;20523;-51
2022/04/01 06:20:07;;;;;;;;;;;1.70;99.90;;;;;;5004149;28;20034;-52
2022/04/01 06:22:40;;;;;;;28.40;19.65;;;1.70;99.90;;;;;;4989188;28;19909;-52
2022/04/01 06:25:13;;;;;;;29.13;19.65;;;1.80;99.90;;;;;;4988649;28;20034;-53
2022/04/01 06:27:48;;;;;;;30.20;19.17;;;1.80;99.90;;;;;;4988631;28;20022;-54
2022/04/01 06:30:18;;;;;;;27.90;20.08;;;1.80;99.90;;;;;;4988971;28;20481;-51
2022/04/01 06:33:03;;;;;;;25.83;18.42;;;1.70;99.90;;;;;;4988618;28;20030;-51
2022/04/01 06:35:35;;;;;;;30.48;19.25;;;1.70;99.90;;;;;;4970743;28;20034;-52
2022/04/01 06:38:08;;;;;;;29.85;18.88;;;1.70;99.90;;;;;;4988527;28;20269;-52
2022/04/01 06:40:58;;;;;;;27.17;17.95;;;1.70;99.90;;;;;;4988616;28;20065;-51
2022/04/01 06:43:24;;;;;;;29.25;19.70;;;1.80;99.90;;;;;;4988730;28;20494;-52
2022/04/01 06:45:50;;;;;;;28.92;19.63;;;1.80;99.90;;;;;;5001617;28;20083;-52
2022/04/01 06:48:16;;;;;;;26.50;17.00;;;1.80;99.90;;;;;;5008267;28;20061;-51
2022/04/01 06:50:49;;;;;;;26.42;18.92;;;1.80;99.90;;;;;;5008289;28;20022;-52
2022/04/01 06:53:16;;;;;;;27.20;18.77;;;1.80;99.90;;;;;;5009036;28;20424;-55
2022/04/01 06:55:42;;;;;;;29.10;18.42;;;1.80;99.90;;;;;;5007528;28;20069;-51
2022/04/01 06:58:11;;;;;;;30.90;19.70;;;1.90;99.90;;;;;;5001102;28;20085;-52
2022/04/01 07:00:43;;;;;;;31.30;19.17;;;1.90;99.90;;;;;;5000200;28;20030;-54
2022/04/01 07:03:10;;;;;;;28.45;19.27;;;1.90;99.90;;;;;;5001174;28;20057;-53
2022/04/01 07:05:36;;;;;;;30.42;18.30;;;1.90;99.90;;;;;;5001586;28;20041;-53
2022/04/01 07:08:03;;;;;;;27.38;17.50;;;1.90;99.90;;;;;;4999070;28;20030;-52
2022/04/01 07:10:30;;;;;;;26.20;17.52;;;1.90;99.90;;;;;;4998688;28;20034;-51
2022/04/01 07:12:56;;;;;;;28.20;17.55;;;1.90;99.90;;;;;;4985057;28;20135;-53
2022/04/01 07:15:22;;;;;;;28.48;18.77;;;1.90;99.90;;;;;;4997724;28;20529;-53
2022/04/01 07:17:47;;;;;;;32.28;19.73;;;2.00;99.90;;;;;;4999749;28;20031;-53
2022/04/01 07:20:13;;;;;;;29.02;19.50;;;2.00;99.90;;;;;;4998275;28;20030;-51
2022/04/01 07:22:40;;;;;;;27.27;19.33;;;2.00;99.90;;;;;;5001788;28;20014;-52
2022/04/01 07:25:07;;;;;;;24.98;17.17;;;2.00;99.90;;;;;;4998927;28;20042;-52
2022/04/01 07:27:34;;;;;;;25.23;16.92;;;2.00;99.90;;;;;;5000729;28;20033;-52
2022/04/01 07:30:00;;;;;;;24.55;16.23;;;2.10;99.90;;;;;;5000154;28;20057;-52
2022/04/01 07:32:30;;;;;;;24.20;16.30;;;2.10;99.90;;;;;;5000252;28;20080;-51
2022/04/01 07:34:57;;;;;;;23.92;16.77;;;2.20;99.90;;;;;;5002053;28;20036;-51
2022/04/01 07:37:26;;;;;;;26.65;17.77;;;2.20;99.90;;;;;;5001198;28;20112;-52
2022/04/01 07:39:53;;;;;;;26.42;16.35;;;2.20;99.90;;;;;;4999278;28;20489;-52
2022/04/01 07:42:21;;;;;;;25.05;16.38;;;2.40;99.90;;;;;;4998805;28;20038;-51
2022/04/01 07:44:48;;;;;;;23.17;16.13;;;2.40;99.90;;;;;;4999604;28;20919;-54
2022/04/01 07:47:14;;;;;;;26.38;15.52;;;2.50;99.90;;;;;;5001724;28;20088;-51
2022/04/01 07:49:43;;;;;;;24.17;16.63;;;2.40;99.90;;;;;;4990727;28;20046;-51
2022/04/01 07:52:10;;;;;;;27.27;17.33;;;2.60;99.90;;;;;;4990957;28;20397;-51
2022/04/01 07:54:38;;;;;;;30.38;17.65;;;2.60;99.90;;;;;;5002357;28;20034;-53
2022/04/01 07:57:04;;;;;;;;;;;2.70;99.90;;;;;;4990659;28;20022;-52
2022/04/01 07:59:30;;;;;;;25.67;15.48;;;2.60;99.90;;;;;;4990907;28;19929;-52
2022/04/01 08:01:58;;;;;;;23.20;16.25;;;2.60;99.90;;;;;;4989681;28;20044;-51
2022/04/01 08:04:25;;;;;;;25.50;15.77;;;2.60;99.90;;;;;;4972757;28;20828;-52
2022/04/01 08:06:51;;;;;;;27.05;17.05;;;2.50;99.90;;;;;;4991438;28;20105;-52
2022/04/01 08:09:17;;;;;;;26.13;17.10;;;2.50;99.90;;;;;;5010212;28;20030;-50
2022/04/01 08:11:43;;;;;;;24.08;16.58;;;2.60;99.90;;;;;;5010135;28;20026;-51
2022/04/01 08:14:09;;;;;;;26.52;17.48;;;2.60;99.90;;;;;;4998942;28;20474;-52
2022/04/01 08:16:35;;;;;;;22.88;16.10;;;2.60;99.90;;;;;;5000696;28;20507;-52
2022/04/01 08:19:02;;;;;;;22.80;17.00;;;2.60;99.90;;;;;;5000425;28;20128;-51
2022/04/01 08:21:29;;;;;;;23.70;17.08;;;2.70;99.90;;;;;;4999356;28;20060;-51
2022/04/01 08:23:55;;;;;;;22.95;16.20;;;2.80;99.90;;;;;;4980260;28;20026;-51
2022/04/01 08:26:20;;;;;;;22.05;14.77;;;2.50;99.90;;;;;;4999558;28;20175;-52
2022/04/01 08:28:46;;;;;;;20.45;14.35;;;2.60;99.90;;;;;;4998700;28;20801;-50
2022/04/01 08:31:11;;;;;;;22.10;14.98;;;2.50;99.90;;;;;;4998383;28;20029;-53
2022/04/01 08:33:37;;;;;;;22.27;14.68;;;2.50;99.90;;;;;;4998577;28;20537;-52
2022/04/01 08:36:04;;;;;;;21.90;14.70;;;2.40;99.90;;;;;;4997563;28;20037;-53
2022/04/01 08:38:30;;;;;;;21.40;14.17;;;2.40;99.90;;;;;;4999126;28;20129;-53
2022/04/01 08:40:55;;;;;;;19.73;13.82;;;2.50;99.90;;;;;;4998532;28;20030;-52
2022/04/01 08:43:36;;;;;;;21.38;13.35;;;2.50;99.90;;;;;;4997187;28;20057;-53
2022/04/01 08:46:07;;;;;;;19.77;14.02;;;2.50;99.90;;;;;;4998015;28;20625;-51
2022/04/01 08:48:34;;;;;;;22.80;14.45;;;2.50;99.90;;;;;;4997409;28;20111;-52
2022/04/01 08:51:00;;;;;;;27.15;16.40;;;2.50;99.90;;;;;;4996728;28;20072;-51
2022/04/01 08:53:26;;;;;;;27.10;17.33;;;2.60;99.90;;;;;;4997935;28;20124;-51
2022/04/01 08:55:55;;;;;;;33.03;18.63;;;2.70;99.90;;;;;;4999221;28;20133;-50
2022/04/01 08:58:23;;;;;;;28.35;16.92;;;2.70;99.90;;;;;;5002510;28;20026;-54
2022/04/01 09:00:50;;;;;;;32.42;17.75;;;2.70;99.90;;;;;;4998517;28;20108;-53
2022/04/01 09:03:17;;;;;;;29.33;18.75;;;2.70;99.90;;;;;;4999063;28;20026;-53
2022/04/01 09:05:50;;;;;;;;;;;2.80;99.90;;;;;;4997378;28;20041;-51
2022/04/01 09:08:23;;;;;;;27.65;17.45;;;2.80;99.90;;;;;;4995613;28;19949;-52
2022/04/01 09:10:58;;;;;;;24.95;16.88;;;2.70;99.90;;;;;;4997252;28;20014;-52
2022/04/01 09:13:27;;;;;;;28.30;18.98;;;2.70;99.90;;;;;;4994357;28;20034;-52
2022/04/01 09:15:54;;;;;;;27.65;18.60;;;2.70;99.90;;;;;;4983531;28;20061;-53
2022/04/01 09:18:40;;;;;;;27.57;17.90;;;2.70;99.90;;;;;;4996321;28;20489;-51
2022/04/01 09:21:08;;;;;;;27.75;18.92;;;2.80;99.90;;;;;;4998625;28;20327;-53
2022/04/01 09:23:35;;;;;;;25.38;17.75;;;2.80;99.90;;;;;;5003649;28;20018;-52
2022/04/01 09:26:02;;;;;;;25.98;18.15;;;2.80;99.90;;;;;;4999063;28;20113;-53
2022/04/01 09:28:37;;;;;;;26.20;17.90;;;2.70;99.90;;;;;;5001857;28;20082;-52
2022/04/01 09:31:12;;;;;;;25.63;18.05;;;2.80;99.90;;;;;;4995199;28;20033;-53
2022/04/01 09:33:43;;;;;;;23.90;17.45;;;2.80;99.90;;;;;;4997086;28;20493;-52
2022/04/01 09:36:14;;;;;;;20.20;15.18;;;2.90;99.90;;;;;;4996724;28;20502;-53
2022/04/01 09:38:50;;;;;;;25.95;17.38;;;2.90;99.90;;;;;;4990258;28;21375;-52
2022/04/01 09:41:18;;;;;;;21.98;15.93;;;2.80;99.90;;;;;;4997276;28;20148;-53
2022/04/01 09:43:44;;;;;;;20.88;14.63;;;2.80;99.90;;;;;;4995045;28;20038;-52
2022/04/01 09:46:27;;;;;;;21.80;15.05;;;2.80;99.90;;;;;;4996153;28;20046;-52
2022/04/01 09:48:57;;;;;;;22.08;15.75;;;2.80;99.90;;;;;;4996196;28;20120;-53
2022/04/01 09:51:24;;;;;;;22.08;14.82;;;2.80;99.90;;;;;;4999261;28;20105;-51
2022/04/01 09:53:52;;;;;;;21.48;15.57;;;2.90;99.90;;;;;;4997528;28;20031;-51
2022/04/01 09:56:18;;;;;;;23.10;15.43;;;2.70;99.90;;;;;;4996106;28;20046;-52
2022/04/01 09:58:44;;;;;;;23.65;16.73;;;2.80;99.90;;;;;;4979972;28;20039;-52
2022/04/01 10:01:11;;;;;;;27.00;17.30;;;2.90;99.90;;;;;;4999147;28;20592;-52
2022/04/01 10:03:36;;;;;;;23.10;17.20;;;3.00;99.90;;;;;;4999810;28;20568;-53
2022/04/01 10:06:02;;;;;;;27.15;17.55;;;3.00;99.90;;;;;;4997415;28;20037;-52
2022/04/01 10:08:30;;;;;;;26.67;17.55;;;3.00;99.90;;;;;;4996904;28;20109;-51
2022/04/01 10:10:57;;;;;;;;;;;3.00;99.90;;;;;;4995173;28;20089;-52
2022/04/01 10:13:29;;;;;;;28.20;17.05;;;3.00;99.90;;;;;;4988736;28;19917;-51
2022/04/01 10:15:58;;;;;;;22.65;16.05;;;3.00;99.90;;;;;;4995088;28;20030;-50
2022/04/01 10:18:25;;;;;;;23.85;16.83;;;2.90;99.90;;;;;;4994960;28;20021;-51
2022/04/01 10:20:54;;;;;;;21.05;15.30;;;3.00;99.90;;;;;;4996671;28;20026;-52
2022/04/01 10:23:23;;;;;;;26.98;16.05;;;2.80;99.90;;;;;;4997708;28;20105;-51
2022/04/01 10:26:02;;;;;;;21.92;15.35;;;2.80;99.90;;;;;;4997536;28;20053;-52
2022/04/01 10:28:28;;;;;;;20.75;14.48;;;2.80;99.90;;;;;;4996930;28;20088;-53
2022/04/01 10:30:56;;;;;;;23.83;15.85;;;2.80;99.90;;;;;;4998460;28;20691;-50
2022/04/01 10:33:29;;;;;;;23.10;15.68;;;2.80;99.90;;;;;;4998213;28;20056;-51
2022/04/01 10:35:55;;;;;;;24.70;16.48;;;2.80;99.90;;;;;;4998434;28;20030;-52
2022/04/01 10:38:27;;;;;;;27.38;16.73;;;2.90;99.90;;;;;;4998188;28;20048;-51
2022/04/01 10:40:54;;;;;;;25.80;17.10;;;2.80;99.90;;;;;;5005166;28;20041;-51
2022/04/01 10:43:32;;;;;;;28.00;17.13;;;2.90;99.90;;;;;;5006535;28;20116;-52
2022/04/01 10:46:08;;;;;;;25.73;18.05;;;2.90;99.90;;;;;;5006866;28;20041;-51
2022/04/01 10:51:37;;;;;;;26.42;17.67;;;2.90;99.90;;;;;;5000565;28;20673;-52
2022/04/01 10:54:23;;;;;;;37.38;20.83;;;2.80;99.90;;;;;;5002431;28;20394;-52
2022/04/01 10:56:56;;;;;;;29.73;16.08;;;2.80;99.90;;;;;;4995767;28;20031;-51
2022/04/01 10:59:25;;;;;;;25.63;16.17;;;2.70;99.90;;;;;;4996106;28;20559;-52
2022/04/01 11:01:53;;;;;;;25.05;15.10;;;2.80;99.90;;;;;;4996177;28;20065;-52
2022/04/01 11:04:19;;;;;;;27.63;16.77;;;2.90;99.90;;;;;;4995474;28;20431;-52
2022/04/01 11:06:58;;;;;;;21.70;14.75;;;2.80;99.90;;;;;;4978481;28;20029;-51
2022/04/01 11:09:42;;;;;;;25.45;17.60;;;2.80;99.90;;;;;;4995696;28;20026;-52
2022/04/01 11:15:08;;;;;;;25.17;17.35;;;2.90;99.90;;;;;;4990764;28;20153;-52
2022/04/01 11:17:34;;;;;;;25.42;17.00;;;2.90;99.90;;;;;;4995729;28;20494;-51
2022/04/01 11:20:09;;;;;;;27.40;18.88;;;2.90;99.90;;;;;;4995894;28;20104;-52
2022/04/01 11:22:53;;;;;;;30.20;19.73;;;2.90;99.90;;;;;;4995240;28;20054;-52
2022/04/01 11:25:22;;;;;;;28.33;18.25;;;2.90;99.90;;;;;;4993703;28;20457;-50
2022/04/01 11:27:57;;;;;;;27.58;16.45;;;2.90;99.90;;;;;;4995787;28;20371;-53
2022/04/01 11:30:34;;;;;;;24.25;16.05;;;2.90;99.90;;;;;;4985342;28;20045;-52
2022/04/01 11:33:08;;;;;;;24.77;16.63;;;2.90;99.90;;;;;;4995115;28;20050;-51
2022/04/01 11:35:39;;;;;;;25.73;16.38;;;3.00;99.90;;;;;;4999056;28;20069;-52
2022/04/01 11:38:06;;;;;;;23.00;14.93;;;3.10;99.90;;;;;;4998850;28;20046;-51
2022/04/01 11:40:36;;;;;;;;;;;3.10;99.90;;;;;;5002675;28;20030;-52
2022/04/01 11:43:15;;;;;;;22.30;14.88;;;3.10;99.90;;;;;;5010315;28;20652;-54
2022/04/01 11:45:46;;;;;;;26.25;16.83;;;3.10;99.90;;;;;;5001183;28;20042;-52
2022/04/01 11:48:19;;;;;;;22.08;14.82;;;3.20;99.90;;;;;;4998611;28;20030;-52
2022/04/01 11:50:48;;;;;;;24.80;16.05;;;3.10;99.90;;;;;;4999164;28;20025;-51
2022/04/01 11:53:22;;;;;;;24.63;15.48;;;3.20;99.90;;;;;;5000584;28;20735;-53
2022/04/01 11:55:49;;;;;;;20.42;13.93;;;3.10;99.90;;;;;;4997159;28;20088;-51
2022/04/01 11:58:15;;;;;;;19.08;13.13;;;3.00;99.90;;;;;;4994087;28;20022;-52
2022/04/01 12:00:41;;;;;;;20.60;13.45;;;3.00;99.90;;;;;;4999402;28;20034;-54
2022/04/01 12:03:09;;;;;;;23.08;15.95;;;3.00;99.90;;;;;;4998061;28;20108;-53
2022/04/01 12:05:35;;;;;;;28.85;17.58;;;3.10;99.90;;;;;;5004306;28;20032;-51
2022/04/01 12:10:57;;;;;;;23.48;16.60;;;3.00;99.90;;;;;;4998608;28;20065;-54
2022/04/01 12:13:25;;;;;;;21.60;15.68;;;3.00;99.90;;;;;;4998088;28;20053;-52
2022/04/01 12:15:52;;;;;;;25.67;16.38;;;2.90;99.90;;;;;;4999373;28;20377;-51
2022/04/01 12:18:27;;;;;;;23.40;15.30;;;2.70;99.90;;;;;;4997254;28;20110;-51
2022/04/01 12:20:58;;;;;;;24.15;15.15;;;2.80;99.90;;;;;;5000694;28;20029;-52
2022/04/01 12:23:30;;;;;;;24.85;13.30;;;2.70;99.90;;;;;;4999318;28;20080;-53
2022/04/01 12:25:56;;;;;;;20.42;13.52;;;2.70;99.90;;;;;;4999213;28;20026;-52
2022/04/01 12:28:34;;;;;;;22.00;14.57;;;2.70;99.90;;;;;;4998698;28;20486;-52
2022/04/01 12:30:59;;;;;;;20.02;14.65;;;2.70;99.90;;;;;;4998232;28;20465;-52
2022/04/01 12:33:30;;;;;;;22.98;15.10;;;2.70;99.90;;;;;;4998766;28;20037;-50
2022/04/01 12:35:59;;;;;;;20.55;13.43;;;2.70;99.90;;;;;;4999693;28;20052;-52
2022/04/01 12:38:27;;;;;;;19.13;12.93;;;2.60;99.90;;;;;;4998147;28;20038;-53
2022/04/01 12:40:59;;;;;;;16.70;12.05;;;2.60;99.90;;;;;;4999495;28;20038;-53
2022/04/01 12:43:44;;;;;;;18.77;12.95;;;2.60;99.90;;;;;;4993733;28;20492;-50
2022/04/01 12:46:30;;;;;;;22.50;13.52;;;2.60;99.90;;;;;;4996689;28;20791;-53
2022/04/01 12:49:10;;;;;;;23.60;15.55;;;2.60;99.90;;;;;;4999206;28;20036;-51
2022/04/01 12:51:39;;;;;;;24.10;16.35;;;2.60;99.90;;;;;;5000015;28;20112;-51
2022/04/01 12:54:22;;;;;;;23.45;16.63;;;2.60;99.90;;;;;;4999460;28;20033;-53
2022/04/01 12:56:50;;;;;;;31.67;16.02;;;2.70;99.90;;;;;;4998851;28;20041;-53
2022/04/01 12:59:24;;;;;;;23.33;16.88;;;2.60;99.90;;;;;;4996956;28;20084;-51
2022/04/01 13:02:07;;;;;;;22.40;15.60;;;2.60;99.90;;;;;;4997333;28;20030;-51
2022/04/01 13:04:42;;;;;;;22.95;15.13;;;2.60;99.90;;;;;;4996953;28;20079;-52
2022/04/01 13:07:19;;;;;;;20.25;14.15;;;2.60;99.90;;;;;;4996136;28;20042;-52